Date,TemperatureHighF,TemperatureAvgF,TemperatureLowF,DewpointHighF,DewpointAvgF,DewpointLowF,HumidityHigh,HumidityAvg,HumidityLow,PressureMaxIn,PressureMinIn,WindSpeedMaxMPH,WindSpeedAvgMPH,GustSpeedMaxMPH,PrecipitationSumIn
2013-6-1,67.0,57.0,46.9,54.0,50.0,45.0,94,78,57,30.47,30.29,8,3,12,0.00
2013-6-2,66.9,58.9,52.7,56.0,51.4,48.0,91,77,59,30.31,30.26,11,4,14,0.00
2013-6-3,68.9,58.2,47.8,58.0,51.8,46.0,96,80,60,30.34,30.29,8,3,12,0.00
2013-6-4,74.7,61.4,47.7,58.0,52.2,46.0,96,74,53,30.36,30.25,9,4,15,0.00
2013-6-5,70.2,59.9,51.6,60.0,54.5,49.0,96,83,68,30.33,30.26,11,4,15,0.00
2013-6-6,74.0,61.0,48.7,59.0,51.4,42.0,96,73,48,30.27,30.23,9,3,17,0.00
2013-6-7,66.0,58.0,52.8,55.0,49.9,44.0,83,75,65,30.38,30.25,13,5,18,0.00
2013-6-8,63.3,56.9,51.9,52.0,48.7,47.0,84,74,62,30.41,30.33,16,6,21,0.00
2013-6-9,62.6,55.8,51.2,52.0,47.9,45.0,88,75,56,30.34,30.26,17,8,22,0.00
2013-6-10,66.6,56.2,45.6,53.0,48.8,44.0,94,77,53,30.26,30.11,18,5,22,0.00
2013-6-11,64.5,56.1,52.5,52.0,48.7,47.0,92,77,58,30.31,30.15,15,5,18,0.02
2013-6-12,64.3,56.7,52.3,54.0,50.5,48.0,95,80,63,30.36,30.31,13,6,15,0.00
2013-6-13,66.1,57.2,51.9,53.0,50.7,49.0,95,80,55,30.43,30.36,24,5,28,0.01
2013-6-14,65.4,56.8,50.8,54.0,51.0,48.0,94,81,62,30.45,30.29,12,4,19,0.00
2013-6-15,71.6,60.4,49.2,56.0,52.5,47.0,95,76,58,30.29,30.14,10,4,14,0.00
2013-6-16,67.7,59.3,49.5,57.0,52.7,47.0,93,79,66,30.30,30.20,12,3,15,0.02
2013-6-17,73.2,59.9,49.4,58.0,53.4,48.0,96,80,53,30.31,30.11,14,4,18,0.00
2013-6-18,71.7,61.8,56.5,57.0,53.0,46.0,94,74,40,30.18,30.09,19,10,24,0.00
2013-6-19,66.3,59.6,55.7,56.0,51.7,49.0,86,76,60,30.21,30.13,15,7,20,0.00
2013-6-20,56.3,54.3,53.0,53.0,51.4,50.0,93,90,81,30.32,30.17,19,7,25,0.18
2013-6-21,67.0,58.4,53.1,55.0,53.1,51.0,97,83,61,30.39,30.32,7,3,10,0.04
2013-6-22,73.8,62.5,50.3,58.0,54.0,48.0,96,76,52,30.34,30.07,7,2,11,0.00
2013-6-23,68.3,62.0,55.9,63.0,58.0,53.0,96,87,74,30.07,29.81,6,2,7,0.00
2013-6-24,64.6,61.0,57.1,61.0,57.9,55.0,97,89,77,29.91,29.77,22,9,27,0.05
2013-6-25,70.1,62.2,57.1,62.0,57.7,55.0,95,85,66,30.04,29.89,22,12,30,0.24
2013-6-26,69.5,63.3,57.4,62.0,58.6,55.0,93,85,74,30.28,30.05,21,12,27,0.01
2013-6-27,70.4,64.1,59.2,65.0,60.9,57.0,94,89,77,30.42,30.26,18,8,22,0.14
2013-6-28,76.7,65.9,56.1,68.0,61.5,55.0,97,86,68,30.42,30.27,10,3,14,0.00
2013-6-29,79.4,68.2,60.9,67.0,61.5,56.0,94,80,59,30.32,30.22,10,3,12,0.00
2013-6-30,84.7,70.6,55.4,69.0,61.1,53.0,93,73,57,30.24,30.08,10,4,14,0.00